Raynham Center, MA (02768)

8:42 PM EST on February 06, 2016 (GMT -0500)
king james | | Change Station
CLOSE
Current Station
Personal Weather Station
Location: Taunton, MA
Elevation: 50 ft
Nearby Weather Stations

Elev 50 ft 41.90 °N, 71.06 °W | Updated 5 minutes ago

Partly Cloudy
Partly Cloudy
27.1 °F
Feels Like 27 °F
N
0.0
Wind Variable Wind from WSW

Today
High -- | Low -- °F
--% Chance of Precip.
Yesterday
High -- | Low -- °F
Precip. -- in
Pressure 30.30 in
Visibility 10.0 miles
Clouds Clear
Windchill 27 °F
Dew Point 26 °F
Humidity 94%
Rainfall 0.53 in
Snow Depth Not available.
6:51 AM 5:05 PM
Waning Crescent, 3% visible
METAR KPYM 070052Z AUTO 22004KT 10SM CLR M01/M03 A3029 RMK AO2 SLP258 T10111033
Pressure 30.30 in
Visibility 10.0 miles
Clouds Clear
Windchill 27 °F
Dew Point 26 °F
Humidity 94%
Rainfall 0.53 in
Snow Depth Not available.
6:51 AM 5:05 PM
Waning Crescent, 3% visible
METAR KPYM 070052Z AUTO 22004KT 10SM CLR M01/M03 A3029 RMK AO2 SLP258 T10111033

10-Day Weather Forecast

Almanac

Astronomy

Feb. 06, 2016 Rise Set
Actual Time
Civil Twilight
Nautical Twilight
Astronomical Twilight
Moon
Length of Visible Light
Length of Day
Tomorrow will be .
, % of the Moon is Illuminated

Today's Extremes

State Highs State Lows

Community

WunderPhotos

Upload Photos

1,891,123 photos uploaded!

WunderBlog® & News

Nearby

Air Quality

  Air Quality AQ Index Pollutant
Not available.

Snow Depth

Station Depth Elevation

Earthquake Activity

City Distance Mag. Time & Date
Minimum magnitude displayed is 2.5.

Coastal Water Temperatures

Place Temperature

Stations

Nearby Weather Stations

Station Location Temp. Windchill Dew Point Humidity Wind Precip. Elev Updated Type
                   

Watches & Warnings

There are currently no watches in effect.